sensor_id;sensor_type;location;lat;lon;timestamp;pressure;altitude;pressure_sealevel;temperature;humidity
71768;BME280;59604;52.138;5.446;2022-11-25T00:03:34;101133.41;;;7.34;100.00
71768;BME280;59604;52.138;5.446;2022-11-25T00:06:14;101123.06;;;7.33;100.00
71768;BME280;59604;52.138;5.446;2022-11-25T00:08:42;101123.06;;;7.33;100.00
71768;BME280;59604;52.138;5.446;2022-11-25T00:11:11;101125.84;;;7.31;100.00
71768;BME280;59604;52.138;5.446;2022-11-25T00:13:40;101119.63;;;7.32;100.00
71768;BME280;59604;52.138;5.446;2022-11-25T00:16:09;101119.78;;;7.31;100.00
71768;BME280;59604;52.138;5.446;2022-11-25T00:18:37;101109.31;;;7.31;100.00
71768;BME280;59604;52.138;5.446;2022-11-25T00:21:08;101100.63;;;7.30;100.00
71768;BME280;59604;52.138;5.446;2022-11-25T00:23:36;101109.31;;;7.31;100.00
71768;BME280;59604;52.138;5.446;2022-11-25T00:28:34;101105.72;;;7.32;100.00
71768;BME280;59604;52.138;5.446;2022-11-25T00:31:15;101106.53;;;7.32;100.00
71768;BME280;59604;52.138;5.446;2022-11-25T00:33:43;101106.53;;;7.32;100.00
71768;BME280;59604;52.138;5.446;2022-11-25T00:36:15;101102.09;;;7.33;100.00
71768;BME280;59604;52.138;5.446;2022-11-25T00:38:43;101098.84;;;7.31;100.00
71768;BME280;59604;52.138;5.446;2022-11-25T00:41:10;101101.47;;;7.31;100.00
71768;BME280;59604;52.138;5.446;2022-11-25T00:43:55;101096.03;;;7.32;100.00
71768;BME280;59604;52.138;5.446;2022-11-25T00:46:41;101101.28;;;7.32;100.00
71768;BME280;59604;52.138;5.446;2022-11-25T00:49:09;101105.72;;;7.32;100.00
71768;BME280;59604;52.138;5.446;2022-11-25T00:51:36;101101.28;;;7.32;100.00
71768;BME280;59604;52.138;5.446;2022-11-25T00:54:03;101093.41;;;7.32;100.00
71768;BME280;59604;52.138;5.446;2022-11-25T00:56:29;101089.00;;;7.33;100.00
71768;BME280;59604;52.138;5.446;2022-11-25T00:58:56;101097.84;;;7.32;100.00
71768;BME280;59604;52.138;5.446;2022-11-25T01:01:23;101096.03;;;7.32;100.00
71768;BME280;59604;52.138;5.446;2022-11-25T01:03:51;101089.00;;;7.33;100.00
71768;BME280;59604;52.138;5.446;2022-11-25T01:06:19;101085.56;;;7.32;100.00
71768;BME280;59604;52.138;5.446;2022-11-25T01:08:46;101089.84;;;7.33;100.00
71768;BME280;59604;52.138;5.446;2022-11-25T01:11:18;101091.47;;;7.34;100.00
71768;BME280;59604;52.138;5.446;2022-11-25T01:13:46;101089.66;;;7.35;100.00
71768;BME280;59604;52.138;5.446;2022-11-25T01:16:15;101083.28;;;7.37;100.00
71768;BME280;59604;52.138;5.446;2022-11-25T01:18:43;101081.63;;;7.36;100.00
71768;BME280;59604;52.138;5.446;2022-11-25T01:23:44;101091.97;;;7.38;100.00
71768;BME280;59604;52.138;5.446;2022-11-25T01:26:14;101091.97;;;7.38;100.00
71768;BME280;59604;52.138;5.446;2022-11-25T01:28:41;101084.94;;;7.38;100.00
71768;BME280;59604;52.138;5.446;2022-11-25T01:31:17;101088.38;;;7.39;100.00
71768;BME280;59604;52.138;5.446;2022-11-25T01:33:46;101088.38;;;7.39;100.00
71768;BME280;59604;52.138;5.446;2022-11-25T01:36:14;101090.97;;;7.39;100.00
71768;BME280;59604;52.138;5.446;2022-11-25T01:38:41;101100.47;;;7.40;100.00
71768;BME280;59604;52.138;5.446;2022-11-25T01:41:12;101102.97;;;7.41;100.00
71768;BME280;59604;52.138;5.446;2022-11-25T01:43:39;101097.72;;;7.41;100.00
71768;BME280;59604;52.138;5.446;2022-11-25T01:48:41;101099.34;;;7.42;100.00
71768;BME280;59604;52.138;5.446;2022-11-25T01:51:29;101108.84;;;7.43;100.00
71768;BME280;59604;52.138;5.446;2022-11-25T01:54:02;101111.31;;;7.45;100.00
71768;BME280;59604;52.138;5.446;2022-11-25T01:59:19;101113.63;;;7.48;100.00
71768;BME280;59604;52.138;5.446;2022-11-25T02:01:47;101121.50;;;7.48;100.00
71768;BME280;59604;52.138;5.446;2022-11-25T02:04:15;101126.72;;;7.48;100.00
71768;BME280;59604;52.138;5.446;2022-11-25T02:06:51;101130.81;;;7.50;100.00
71768;BME280;59604;52.138;5.446;2022-11-25T02:09:20;101123.75;;;7.51;100.00
71768;BME280;59604;52.138;5.446;2022-11-25T02:11:48;101122.94;;;7.50;100.00
71768;BME280;59604;52.138;5.446;2022-11-25T02:14:21;101128.03;;;7.52;100.00
71768;BME280;59604;52.138;5.446;2022-11-25T02:16:49;101130.50;;;7.54;100.00
71768;BME280;59604;52.138;5.446;2022-11-25T02:19:28;101129.50;;;7.55;100.00
71768;BME280;59604;52.138;5.446;2022-11-25T02:22:01;101131.97;;;7.56;100.00
71768;BME280;59604;52.138;5.446;2022-11-25T02:24:40;101136.09;;;7.59;100.00
71768;BME280;59604;52.138;5.446;2022-11-25T02:27:08;101138.53;;;7.60;100.00
71768;BME280;59604;52.138;5.446;2022-11-25T02:29:35;101136.91;;;7.59;100.00
71768;BME280;59604;52.138;5.446;2022-11-25T02:32:03;101131.50;;;7.61;100.00
71768;BME280;59604;52.138;5.446;2022-11-25T02:34:30;101133.13;;;7.62;100.00
71768;BME280;59604;52.138;5.446;2022-11-25T02:37:05;101126.25;;;7.61;100.00
71768;BME280;59604;52.138;5.446;2022-11-25T02:39:35;101132.16;;;7.63;100.00
71768;BME280;59604;52.138;5.446;2022-11-25T02:42:02;101129.38;;;7.64;100.00
71768;BME280;59604;52.138;5.446;2022-11-25T02:44:29;101124.81;;;7.66;100.00
71768;BME280;59604;52.138;5.446;2022-11-25T02:46:55;101125.63;;;7.67;100.00
71768;BME280;59604;52.138;5.446;2022-11-25T02:49:22;101115.94;;;7.67;100.00
71768;BME280;59604;52.138;5.446;2022-11-25T02:51:49;101109.06;;;7.66;100.00
71768;BME280;59604;52.138;5.446;2022-11-25T02:54:16;101109.06;;;7.66;100.00
71768;BME280;59604;52.138;5.446;2022-11-25T02:56:43;101101.22;;;7.66;100.00
71768;BME280;59604;52.138;5.446;2022-11-25T02:59:10;101108.09;;;7.67;100.00
71768;BME280;59604;52.138;5.446;2022-11-25T03:01:37;101108.91;;;7.68;100.00
71768;BME280;59604;52.138;5.446;2022-11-25T03:04:04;101124.44;;;7.69;100.00
71768;BME280;59604;52.138;5.446;2022-11-25T03:06:35;101128.06;;;7.68;100.00
71768;BME280;59604;52.138;5.446;2022-11-25T03:09:02;101121.84;;;7.69;100.00
71768;BME280;59604;52.138;5.446;2022-11-25T03:11:29;101133.00;;;7.71;100.00
71768;BME280;59604;52.138;5.446;2022-11-25T03:14:14;101140.69;;;7.73;100.00
71768;BME280;59604;52.138;5.446;2022-11-25T03:16:41;101132.66;;;7.74;100.00
71768;BME280;59604;52.138;5.446;2022-11-25T03:19:08;101132.66;;;7.74;100.00
71768;BME280;59604;52.138;5.446;2022-11-25T03:21:35;101125.44;;;7.77;100.00
71768;BME280;59604;52.138;5.446;2022-11-25T03:24:02;101116.63;;;7.78;100.00
71768;BME280;59604;52.138;5.446;2022-11-25T03:26:29;101115.81;;;7.77;100.00
71768;BME280;59604;52.138;5.446;2022-11-25T03:28:55;101118.25;;;7.79;100.00
71768;BME280;59604;52.138;5.446;2022-11-25T03:31:22;101128.75;;;7.79;100.00
71768;BME280;59604;52.138;5.446;2022-11-25T03:33:49;101129.72;;;7.78;100.00
71768;BME280;59604;52.138;5.446;2022-11-25T03:36:15;101131.53;;;7.77;100.00
71768;BME280;59604;52.138;5.446;2022-11-25T03:38:42;101140.38;;;7.76;100.00
71768;BME280;59604;52.138;5.446;2022-11-25T03:41:09;101144.78;;;7.75;100.00
71768;BME280;59604;52.138;5.446;2022-11-25T03:43:36;101150.72;;;7.78;100.00
71768;BME280;59604;52.138;5.446;2022-11-25T03:46:03;101155.78;;;7.79;100.00
71768;BME280;59604;52.138;5.446;2022-11-25T03:48:30;101155.78;;;7.79;100.00
71768;BME280;59604;52.138;5.446;2022-11-25T03:50:56;101148.22;;;7.76;100.00
71768;BME280;59604;52.138;5.446;2022-11-25T03:53:23;101155.28;;;7.75;100.00
71768;BME280;59604;52.138;5.446;2022-11-25T03:55:50;101152.03;;;7.73;100.00
71768;BME280;59604;52.138;5.446;2022-11-25T03:58:30;101154.63;;;7.73;100.00
71768;BME280;59604;52.138;5.446;2022-11-25T04:01:01;101159.22;;;7.71;100.00
71768;BME280;59604;52.138;5.446;2022-11-25T04:03:29;101164.47;;;7.71;100.00
71768;BME280;59604;52.138;5.446;2022-11-25T04:05:56;101159.38;;;7.70;100.00
71768;BME280;59604;52.138;5.446;2022-11-25T04:08:22;101167.06;;;7.71;100.00
71768;BME280;59604;52.138;5.446;2022-11-25T04:10:50;101172.63;;;7.68;100.00
71768;BME280;59604;52.138;5.446;2022-11-25T04:13:17;101162.16;;;7.68;100.00
71768;BME280;59604;52.138;5.446;2022-11-25T04:15:45;101171.66;;;7.69;100.00
71768;BME280;59604;52.138;5.446;2022-11-25T04:18:13;101170.00;;;7.68;100.00
71768;BME280;59604;52.138;5.446;2022-11-25T04:20:40;101168.38;;;7.67;100.00
71768;BME280;59604;52.138;5.446;2022-11-25T04:23:08;101179.84;;;7.66;100.00
71768;BME280;59604;52.138;5.446;2022-11-25T04:25:36;101179.84;;;7.66;100.00
71768;BME280;59604;52.138;5.446;2022-11-25T04:28:03;101180.50;;;7.68;100.00
71768;BME280;59604;52.138;5.446;2022-11-25T04:30:32;101193.63;;;7.68;100.00
71768;BME280;59604;52.138;5.446;2022-11-25T04:32:59;101184.94;;;7.68;100.00
71768;BME280;59604;52.138;5.446;2022-11-25T04:35:26;101185.75;;;7.68;100.00
71768;BME280;59604;52.138;5.446;2022-11-25T04:37:53;101190.34;;;7.66;100.00
71768;BME280;59604;52.138;5.446;2022-11-25T04:40:20;101196.53;;;7.65;100.00
71768;BME280;59604;52.138;5.446;2022-11-25T04:42:47;101196.53;;;7.65;100.00
71768;BME280;59604;52.138;5.446;2022-11-25T04:45:15;101201.28;;;7.62;100.00
71768;BME280;59604;52.138;5.446;2022-11-25T04:47:50;101205.06;;;7.59;100.00
71768;BME280;59604;52.138;5.446;2022-11-25T04:50:21;101208.00;;;7.56;100.00
71768;BME280;59604;52.138;5.446;2022-11-25T04:52:48;101202.25;;;7.53;100.00
71768;BME280;59604;52.138;5.446;2022-11-25T04:55:15;101210.25;;;7.51;100.00
71768;BME280;59604;52.138;5.446;2022-11-25T04:57:42;101215.03;;;7.47;100.00
71768;BME280;59604;52.138;5.446;2022-11-25T05:00:09;101216.28;;;7.43;100.00
71768;BME280;59604;52.138;5.446;2022-11-25T05:02:36;101220.88;;;7.41;100.00
71768;BME280;59604;52.138;5.446;2022-11-25T05:05:03;101224.50;;;7.40;100.00
71768;BME280;59604;52.138;5.446;2022-11-25T05:07:30;101223.00;;;7.38;100.00
71768;BME280;59604;52.138;5.446;2022-11-25T05:09:56;101227.72;;;7.34;100.00
71768;BME280;59604;52.138;5.446;2022-11-25T05:12:25;101232.47;;;7.31;100.00
71768;BME280;59604;52.138;5.446;2022-11-25T05:14:52;101243.56;;;7.24;100.00
71768;BME280;59604;52.138;5.446;2022-11-25T05:17:21;101245.53;;;7.22;100.00
71768;BME280;59604;52.138;5.446;2022-11-25T05:19:49;101250.41;;;7.17;100.00
71768;BME280;59604;52.138;5.446;2022-11-25T05:22:19;101242.03;;;7.14;100.00
71768;BME280;59604;52.138;5.446;2022-11-25T05:24:46;101251.03;;;7.11;100.00
71768;BME280;59604;52.138;5.446;2022-11-25T05:27:13;101259.19;;;7.08;100.00
71768;BME280;59604;52.138;5.446;2022-11-25T05:29:40;101261.31;;;7.05;100.00
71768;BME280;59604;52.138;5.446;2022-11-25T05:32:08;101253.75;;;7.01;100.00
71768;BME280;59604;52.138;5.446;2022-11-25T05:34:35;101257.50;;;6.99;100.00
71768;BME280;59604;52.138;5.446;2022-11-25T05:37:03;101258.63;;;6.96;100.00
71768;BME280;59604;52.138;5.446;2022-11-25T05:39:30;101260.88;;;6.91;100.00
71768;BME280;59604;52.138;5.446;2022-11-25T05:41:57;101255.28;;;6.86;100.00
71768;BME280;59604;52.138;5.446;2022-11-25T05:44:23;101263.44;;;6.83;100.00
71768;BME280;59604;52.138;5.446;2022-11-25T05:46:50;101266.22;;;6.82;100.00
71768;BME280;59604;52.138;5.446;2022-11-25T05:49:18;101270.94;;;6.78;100.00
71768;BME280;59604;52.138;5.446;2022-11-25T05:51:45;101272.22;;;6.74;100.00
71768;BME280;59604;52.138;5.446;2022-11-25T05:54:12;101274.31;;;6.70;100.00
71768;BME280;59604;52.138;5.446;2022-11-25T05:56:39;101277.91;;;6.69;100.00
71768;BME280;59604;52.138;5.446;2022-11-25T05:59:06;101284.28;;;6.67;100.00
71768;BME280;59604;52.138;5.446;2022-11-25T06:01:32;101289.66;;;6.65;100.00
71768;BME280;59604;52.138;5.446;2022-11-25T06:04:00;101284.56;;;6.64;100.00
71768;BME280;59604;52.138;5.446;2022-11-25T06:06:26;101284.56;;;6.64;100.00
71768;BME280;59604;52.138;5.446;2022-11-25T06:08:53;101285.53;;;6.63;100.00
71768;BME280;59604;52.138;5.446;2022-11-25T06:11:20;101292.25;;;6.65;100.00
71768;BME280;59604;52.138;5.446;2022-11-25T06:13:47;101296.69;;;6.65;100.00
71768;BME280;59604;52.138;5.446;2022-11-25T06:16:20;101294.59;;;6.68;100.00
71768;BME280;59604;52.138;5.446;2022-11-25T06:18:48;101299.66;;;6.70;100.00
71768;BME280;59604;52.138;5.446;2022-11-25T06:21:15;101298.72;;;6.71;100.00
71768;BME280;59604;52.138;5.446;2022-11-25T06:23:42;101288.22;;;6.71;100.00
71768;BME280;59604;52.138;5.446;2022-11-25T06:26:16;101301.63;;;6.68;100.00
71768;BME280;59604;52.138;5.446;2022-11-25T06:28:44;101304.88;;;6.70;100.00
71768;BME280;59604;52.138;5.446;2022-11-25T06:31:15;101309.31;;;6.69;100.00
71768;BME280;59604;52.138;5.446;2022-11-25T06:33:46;101316.34;;;6.69;100.00
71768;BME280;59604;52.138;5.446;2022-11-25T06:36:12;101314.03;;;6.66;100.00
71768;BME280;59604;52.138;5.446;2022-11-25T06:38:43;101323.03;;;6.63;100.00
71768;BME280;59604;52.138;5.446;2022-11-25T06:41:11;101316.94;;;6.63;100.00
71768;BME280;59604;52.138;5.446;2022-11-25T06:43:38;101325.78;;;6.62;100.00
71768;BME280;59604;52.138;5.446;2022-11-25T06:46:11;101330.19;;;6.61;100.00
71768;BME280;59604;52.138;5.446;2022-11-25T06:48:39;101337.50;;;6.58;100.00
71768;BME280;59604;52.138;5.446;2022-11-25T06:51:09;101336.97;;;6.54;100.00
71768;BME280;59604;52.138;5.446;2022-11-25T06:53:36;101349.25;;;6.53;100.00
71768;BME280;59604;52.138;5.446;2022-11-25T06:56:12;101357.25;;;6.52;100.00
71768;BME280;59604;52.138;5.446;2022-11-25T06:58:41;101355.47;;;6.52;100.00
71768;BME280;59604;52.138;5.446;2022-11-25T07:01:14;101353.66;;;6.53;100.00
71768;BME280;59604;52.138;5.446;2022-11-25T07:03:42;101364.13;;;6.53;100.00
71768;BME280;59604;52.138;5.446;2022-11-25T07:06:10;101360.16;;;6.49;100.00
71768;BME280;59604;52.138;5.446;2022-11-25T07:08:38;101360.31;;;6.47;100.00
71768;BME280;59604;52.138;5.446;2022-11-25T07:11:18;101362.38;;;6.44;100.00
71768;BME280;59604;52.138;5.446;2022-11-25T07:13:46;101364.47;;;6.40;100.00
71768;BME280;59604;52.138;5.446;2022-11-25T07:16:13;101375.94;;;6.39;100.00
71768;BME280;59604;52.138;5.446;2022-11-25T07:18:41;101381.31;;;6.38;100.00
71768;BME280;59604;52.138;5.446;2022-11-25T07:21:10;101385.72;;;6.37;100.00
71768;BME280;59604;52.138;5.446;2022-11-25T07:23:38;101390.97;;;6.37;100.00
71768;BME280;59604;52.138;5.446;2022-11-25T07:26:10;101387.50;;;6.37;100.00
71768;BME280;59604;52.138;5.446;2022-11-25T07:28:38;101389.28;;;6.36;100.00
71768;BME280;59604;52.138;5.446;2022-11-25T07:31:11;101396.47;;;6.34;100.00
71768;BME280;59604;52.138;5.446;2022-11-25T07:34:02;101391.53;;;6.31;100.00
71768;BME280;59604;52.138;5.446;2022-11-25T07:36:32;101393.47;;;6.29;100.00
71768;BME280;59604;52.138;5.446;2022-11-25T07:39:06;101397.88;;;6.28;100.00
71768;BME280;59604;52.138;5.446;2022-11-25T07:41:33;101400.50;;;6.28;100.00
71768;BME280;59604;52.138;5.446;2022-11-25T07:44:02;101406.69;;;6.27;100.00
71768;BME280;59604;52.138;5.446;2022-11-25T07:46:35;101417.81;;;6.29;100.00
71768;BME280;59604;52.138;5.446;2022-11-25T07:49:08;101419.63;;;6.29;100.00
71768;BME280;59604;52.138;5.446;2022-11-25T07:51:49;101422.13;;;6.31;100.00
71768;BME280;59604;52.138;5.446;2022-11-25T07:54:16;101424.72;;;6.31;100.00
71768;BME280;59604;52.138;5.446;2022-11-25T07:56:44;101431.44;;;6.33;100.00
71768;BME280;59604;52.138;5.446;2022-11-25T07:59:13;101430.63;;;6.33;100.00
71768;BME280;59604;52.138;5.446;2022-11-25T08:01:41;101446.31;;;6.33;100.00
71768;BME280;59604;52.138;5.446;2022-11-25T08:04:11;101443.69;;;6.33;100.00
71768;BME280;59604;52.138;5.446;2022-11-25T08:06:46;101444.25;;;6.36;100.00
71768;BME280;59604;52.138;5.446;2022-11-25T08:09:17;101441.50;;;6.38;100.00
71768;BME280;59604;52.138;5.446;2022-11-25T08:11:45;101440.69;;;6.37;100.00
71768;BME280;59604;52.138;5.446;2022-11-25T08:14:13;101436.38;;;6.36;100.00
71768;BME280;59604;52.138;5.446;2022-11-25T08:16:40;101450.28;;;6.37;100.00
71768;BME280;59604;52.138;5.446;2022-11-25T08:19:13;101457.19;;;6.38;100.00
71768;BME280;59604;52.138;5.446;2022-11-25T08:21:40;101464.88;;;6.39;100.00
71768;BME280;59604;52.138;5.446;2022-11-25T08:24:12;101467.06;;;6.44;100.00
71768;BME280;59604;52.138;5.446;2022-11-25T08:26:40;101472.00;;;6.47;100.00
71768;BME280;59604;52.138;5.446;2022-11-25T08:29:12;101479.72;;;6.48;100.00
71768;BME280;59604;52.138;5.446;2022-11-25T08:31:39;101478.47;;;6.52;100.00
71768;BME280;59604;52.138;5.446;2022-11-25T08:34:18;101486.16;;;6.54;100.00
71768;BME280;59604;52.138;5.446;2022-11-25T08:36:47;101484.38;;;6.54;100.00
71768;BME280;59604;52.138;5.446;2022-11-25T08:39:14;101490.13;;;6.58;100.00
71768;BME280;59604;52.138;5.446;2022-11-25T08:42:02;101500.31;;;6.61;100.00
71768;BME280;59604;52.138;5.446;2022-11-25T08:44:30;101499.34;;;6.62;100.00
71768;BME280;59604;52.138;5.446;2022-11-25T08:46:57;101493.97;;;6.64;100.00
71768;BME280;59604;52.138;5.446;2022-11-25T08:49:24;101502.22;;;6.69;100.00
71768;BME280;59604;52.138;5.446;2022-11-25T08:51:52;101500.28;;;6.71;100.00
71768;BME280;59604;52.138;5.446;2022-11-25T08:54:19;101503.72;;;6.71;100.00
71768;BME280;59604;52.138;5.446;2022-11-25T08:56:46;101507.84;;;6.74;100.00
71768;BME280;59604;52.138;5.446;2022-11-25T08:59:12;101512.63;;;6.78;100.00
71768;BME280;59604;52.138;5.446;2022-11-25T09:01:39;101509.56;;;6.83;100.00
71768;BME280;59604;52.138;5.446;2022-11-25T09:04:06;101511.09;;;6.86;100.00
71768;BME280;59604;52.138;5.446;2022-11-25T09:06:33;101507.50;;;6.87;100.00
71768;BME280;59604;52.138;5.446;2022-11-25T09:09:00;101517.38;;;6.93;100.00
71768;BME280;59604;52.138;5.446;2022-11-25T09:11:27;101518.88;;;6.95;100.00
71768;BME280;59604;52.138;5.446;2022-11-25T09:13:54;101533.31;;;6.99;100.00
71768;BME280;59604;52.138;5.446;2022-11-25T09:16:21;101533.72;;;7.05;100.00
71768;BME280;59604;52.138;5.446;2022-11-25T09:18:49;101544.19;;;7.05;100.00
71768;BME280;59604;52.138;5.446;2022-11-25T09:21:21;101543.09;;;7.07;100.00
71768;BME280;59604;52.138;5.446;2022-11-25T09:23:51;101545.25;;;7.12;100.00
71768;BME280;59604;52.138;5.446;2022-11-25T09:26:24;101550.19;;;7.15;100.00
71768;BME280;59604;52.138;5.446;2022-11-25T09:28:52;101550.72;;;7.18;100.00
71768;BME280;59604;52.138;5.446;2022-11-25T09:31:20;101555.53;;;7.23;100.00
71768;BME280;59604;52.138;5.446;2022-11-25T09:33:47;101555.22;;;7.26;100.00
71768;BME280;59604;52.138;5.446;2022-11-25T09:36:17;101559.19;;;7.30;100.00
71768;BME280;59604;52.138;5.446;2022-11-25T09:38:44;101564.97;;;7.34;100.00
71768;BME280;59604;52.138;5.446;2022-11-25T09:43:44;101575.53;;;7.42;100.00
71768;BME280;59604;52.138;5.446;2022-11-25T09:57:26;101576.66;;;7.57;100.00
71768;BME280;59604;52.138;5.446;2022-11-25T10:00:05;101581.59;;;7.60;100.00
71768;BME280;59604;52.138;5.446;2022-11-25T10:02:53;101581.31;;;7.63;100.00
71768;BME280;59604;52.138;5.446;2022-11-25T10:05:26;101586.25;;;7.66;100.00
71768;BME280;59604;52.138;5.446;2022-11-25T10:07:59;101592.03;;;7.70;100.00
71768;BME280;59604;52.138;5.446;2022-11-25T10:10:31;101597.47;;;7.77;100.00
71768;BME280;59604;52.138;5.446;2022-11-25T10:13:04;101605.72;;;7.82;100.00
71768;BME280;59604;52.138;5.446;2022-11-25T10:15:43;101601.13;;;7.84;100.00
71768;BME280;59604;52.138;5.446;2022-11-25T10:20:52;101598.59;;;7.92;100.00
71768;BME280;59604;52.138;5.446;2022-11-25T10:23:34;101611.25;;;7.96;100.00
71768;BME280;59604;52.138;5.446;2022-11-25T10:26:15;101610.50;;;8.04;100.00
71768;BME280;59604;52.138;5.446;2022-11-25T10:28:52;101615.28;;;8.09;100.00
71768;BME280;59604;52.138;5.446;2022-11-25T10:31:33;101614.00;;;8.13;100.00
71768;BME280;59604;52.138;5.446;2022-11-25T10:34:01;101616.31;;;8.16;100.00
71768;BME280;59604;52.138;5.446;2022-11-25T10:36:38;101615.19;;;8.18;100.00
71768;BME280;59604;52.138;5.446;2022-11-25T10:39:12;101631.47;;;8.22;100.00
71768;BME280;59604;52.138;5.446;2022-11-25T10:41:57;101624.94;;;8.26;100.00
71768;BME280;59604;52.138;5.446;2022-11-25T10:44:35;101627.78;;;8.33;100.00
71768;BME280;59604;52.138;5.446;2022-11-25T10:52:57;101642.16;;;8.46;100.00
71768;BME280;59604;52.138;5.446;2022-11-25T10:55:30;101653.69;;;8.54;100.00
71768;BME280;59604;52.138;5.446;2022-11-25T10:57:58;101641.91;;;8.58;100.00
71768;BME280;59604;52.138;5.446;2022-11-25T11:00:37;101652.09;;;8.61;100.00
71768;BME280;59604;52.138;5.446;2022-11-25T11:03:24;101655.41;;;8.63;100.00
71768;BME280;59604;52.138;5.446;2022-11-25T11:05:52;101665.97;;;8.71;100.00
71768;BME280;59604;52.138;5.446;2022-11-25T11:08:25;101670.59;;;8.77;100.00
71768;BME280;59604;52.138;5.446;2022-11-25T11:11:18;101666.81;;;8.80;100.00
71768;BME280;59604;52.138;5.446;2022-11-25T11:13:46;101669.50;;;8.88;100.00
71768;BME280;59604;52.138;5.446;2022-11-25T11:16:46;101662.66;;;8.95;100.00
71768;BME280;59604;52.138;5.446;2022-11-25T11:19:29;101678.75;;;9.00;100.00
71768;BME280;59604;52.138;5.446;2022-11-25T11:22:14;101693.91;;;9.06;100.00
71768;BME280;59604;52.138;5.446;2022-11-25T11:24:41;101695.91;;;9.12;100.00
71768;BME280;59604;52.138;5.446;2022-11-25T11:27:22;101696.78;;;9.21;100.00
71768;BME280;59604;52.138;5.446;2022-11-25T11:30:18;101698.41;;;9.22;100.00
71768;BME280;59604;52.138;5.446;2022-11-25T11:35:45;101717.84;;;9.29;100.00
71768;BME280;59604;52.138;5.446;2022-11-25T11:39:19;101705.41;;;9.39;100.00
71768;BME280;59604;52.138;5.446;2022-11-25T11:46:32;101722.00;;;9.48;100.00
71768;BME280;59604;52.138;5.446;2022-11-25T11:54:44;101723.03;;;9.55;99.50
71768;BME280;59604;52.138;5.446;2022-11-25T11:57:34;101724.19;;;9.61;98.89
71768;BME280;59604;52.138;5.446;2022-11-25T12:00:08;101724.69;;;9.64;99.03
71768;BME280;59604;52.138;5.446;2022-11-25T12:02:53;101731.81;;;9.72;99.12
71768;BME280;59604;52.138;5.446;2022-11-25T12:05:26;101722.44;;;9.78;98.55
71768;BME280;59604;52.138;5.446;2022-11-25T12:11:04;101737.41;;;9.85;98.54
71768;BME280;59604;52.138;5.446;2022-11-25T12:13:41;101740.72;;;9.87;97.79
71768;BME280;59604;52.138;5.446;2022-11-25T12:16:15;101730.84;;;9.81;97.16
71768;BME280;59604;52.138;5.446;2022-11-25T12:24:25;101758.53;;;10.10;97.59
71768;BME280;59604;52.138;5.446;2022-11-25T12:27:03;101754.28;;;10.09;96.92
71768;BME280;59604;52.138;5.446;2022-11-25T12:29:43;101762.34;;;10.24;97.27
71768;BME280;59604;52.138;5.446;2022-11-25T12:35:00;101765.38;;;10.53;95.60
71768;BME280;59604;52.138;5.446;2022-11-25T12:38:04;101763.38;;;10.55;95.43
71768;BME280;59604;52.138;5.446;2022-11-25T12:49:06;101782.66;;;10.72;94.78
71768;BME280;59604;52.138;5.446;2022-11-25T13:16:45;101823.16;;;10.47;95.54
71768;BME280;59604;52.138;5.446;2022-11-25T13:19:18;101827.75;;;10.53;94.89
71768;BME280;59604;52.138;5.446;2022-11-25T13:22:00;101827.75;;;10.53;94.93
71768;BME280;59604;52.138;5.446;2022-11-25T13:24:31;101824.47;;;10.51;94.82
71768;BME280;59604;52.138;5.446;2022-11-25T13:26:59;101833.50;;;10.48;94.64
71768;BME280;59604;52.138;5.446;2022-11-25T13:32:11;101830.38;;;10.53;94.78
71768;BME280;59604;52.138;5.446;2022-11-25T13:34:49;101841.28;;;10.58;94.88
71768;BME280;59604;52.138;5.446;2022-11-25T13:37:36;101845.88;;;10.56;94.64
71768;BME280;59604;52.138;5.446;2022-11-25T13:42:52;101847.69;;;10.63;94.22
71768;BME280;59604;52.138;5.446;2022-11-25T13:45:37;101847.03;;;10.53;94.77
71768;BME280;59604;52.138;5.446;2022-11-25T13:48:22;101855.06;;;10.44;94.69
71768;BME280;59604;52.138;5.446;2022-11-25T13:51:17;101861.97;;;10.36;95.26
71768;BME280;59604;52.138;5.446;2022-11-25T13:53:54;101863.09;;;10.26;95.63
71768;BME280;59604;52.138;5.446;2022-11-25T13:56:28;101866.00;;;10.23;95.69
71768;BME280;59604;52.138;5.446;2022-11-25T14:01:37;101870.50;;;10.30;96.06
71768;BME280;59604;52.138;5.446;2022-11-25T14:04:06;101873.97;;;10.31;96.37
71768;BME280;59604;52.138;5.446;2022-11-25T14:06:55;101879.22;;;10.31;96.17
71768;BME280;59604;52.138;5.446;2022-11-25T14:12:44;101876.13;;;10.27;96.00
71768;BME280;59604;52.138;5.446;2022-11-25T14:21:00;101896.25;;;10.10;95.99
71768;BME280;59604;52.138;5.446;2022-11-25T14:24:47;101898.25;;;10.16;96.16
71768;BME280;59604;52.138;5.446;2022-11-25T14:26:52;101907.72;;;10.27;96.53
71768;BME280;59604;52.138;5.446;2022-11-25T14:29:24;101908.88;;;10.41;96.71
71768;BME280;59604;52.138;5.446;2022-11-25T14:31:57;101907.44;;;10.55;96.32
71768;BME280;59604;52.138;5.446;2022-11-25T14:34:31;101919.31;;;10.59;96.18
71768;BME280;59604;52.138;5.446;2022-11-25T14:40:06;101932.59;;;10.41;96.08
71768;BME280;59604;52.138;5.446;2022-11-25T14:42:38;101932.88;;;10.30;96.17
71768;BME280;59604;52.138;5.446;2022-11-25T14:45:27;101937.09;;;10.23;96.84
71768;BME280;59604;52.138;5.446;2022-11-25T14:48:15;101946.47;;;10.17;97.40
71768;BME280;59604;52.138;5.446;2022-11-25T14:50:59;101960.09;;;10.12;97.25
71768;BME280;59604;52.138;5.446;2022-11-25T14:53:28;101964.00;;;10.08;97.93
71768;BME280;59604;52.138;5.446;2022-11-25T14:55:56;101961.03;;;10.03;98.50
71768;BME280;59604;52.138;5.446;2022-11-25T14:58:26;101967.91;;;9.96;99.48
71768;BME280;59604;52.138;5.446;2022-11-25T15:03:23;101976.06;;;9.85;100.00
71768;BME280;59604;52.138;5.446;2022-11-25T15:06:03;101981.78;;;9.80;100.00
71768;BME280;59604;52.138;5.446;2022-11-25T15:08:42;101978.47;;;9.78;100.00